sensor_id;sensor_type;location;lat;lon;timestamp;temperature;humidity
6018;DHT22;3037;51.068;13.780;2024-02-14T00:01:31;2.80;99.90
6018;DHT22;3037;51.068;13.780;2024-02-14T00:03:56;2.70;99.90
6018;DHT22;3037;51.068;13.780;2024-02-14T00:06:22;2.80;99.90
6018;DHT22;3037;51.068;13.780;2024-02-14T00:08:49;2.90;99.90
6018;DHT22;3037;51.068;13.780;2024-02-14T00:11:14;2.90;99.90
6018;DHT22;3037;51.068;13.780;2024-02-14T00:13:40;2.80;99.90
6018;DHT22;3037;51.068;13.780;2024-02-14T00:16:05;3.00;99.90
6018;DHT22;3037;51.068;13.780;2024-02-14T00:18:32;3.00;99.90
6018;DHT22;3037;51.068;13.780;2024-02-14T00:20:57;2.90;99.90
6018;DHT22;3037;51.068;13.780;2024-02-14T00:23:23;3.00;99.90
6018;DHT22;3037;51.068;13.780;2024-02-14T00:25:48;3.00;99.90
6018;DHT22;3037;51.068;13.780;2024-02-14T00:28:13;3.00;99.90
6018;DHT22;3037;51.068;13.780;2024-02-14T00:30:39;3.00;99.90
6018;DHT22;3037;51.068;13.780;2024-02-14T00:33:05;3.00;99.90
6018;DHT22;3037;51.068;13.780;2024-02-14T00:35:30;2.90;99.90
6018;DHT22;3037;51.068;13.780;2024-02-14T00:37:56;3.00;99.90
6018;DHT22;3037;51.068;13.780;2024-02-14T00:40:21;2.90;99.90
6018;DHT22;3037;51.068;13.780;2024-02-14T00:42:48;2.90;99.90
6018;DHT22;3037;51.068;13.780;2024-02-14T00:45:13;3.00;99.90
6018;DHT22;3037;51.068;13.780;2024-02-14T00:47:39;3.20;99.90
6018;DHT22;3037;51.068;13.780;2024-02-14T00:50:05;3.20;99.90
6018;DHT22;3037;51.068;13.780;2024-02-14T00:52:30;3.20;99.90
6018;DHT22;3037;51.068;13.780;2024-02-14T00:54:56;3.40;99.90
6018;DHT22;3037;51.068;13.780;2024-02-14T00:57:22;3.20;99.90
6018;DHT22;3037;51.068;13.780;2024-02-14T00:59:51;3.40;99.90
6018;DHT22;3037;51.068;13.780;2024-02-14T01:02:17;3.30;99.90
6018;DHT22;3037;51.068;13.780;2024-02-14T01:04:43;3.30;99.90
6018;DHT22;3037;51.068;13.780;2024-02-14T01:07:09;3.30;99.90
6018;DHT22;3037;51.068;13.780;2024-02-14T01:09:34;3.40;99.90
6018;DHT22;3037;51.068;13.780;2024-02-14T01:12:01;3.40;99.90
6018;DHT22;3037;51.068;13.780;2024-02-14T01:14:27;3.30;99.90
6018;DHT22;3037;51.068;13.780;2024-02-14T01:16:52;3.30;99.90
6018;DHT22;3037;51.068;13.780;2024-02-14T01:19:19;3.20;99.90
6018;DHT22;3037;51.068;13.780;2024-02-14T01:21:45;3.20;99.90
6018;DHT22;3037;51.068;13.780;2024-02-14T01:24:14;3.20;99.90
6018;DHT22;3037;51.068;13.780;2024-02-14T01:26:39;3.40;99.90
6018;DHT22;3037;51.068;13.780;2024-02-14T01:29:06;3.40;99.90
6018;DHT22;3037;51.068;13.780;2024-02-14T01:31:32;3.40;99.90
6018;DHT22;3037;51.068;13.780;2024-02-14T01:33:58;3.40;99.90
6018;DHT22;3037;51.068;13.780;2024-02-14T01:36:24;3.60;99.90
6018;DHT22;3037;51.068;13.780;2024-02-14T01:38:50;3.50;99.90
6018;DHT22;3037;51.068;13.780;2024-02-14T01:41:15;3.50;99.90
6018;DHT22;3037;51.068;13.780;2024-02-14T01:43:41;3.50;99.90
6018;DHT22;3037;51.068;13.780;2024-02-14T01:46:07;3.60;99.90
6018;DHT22;3037;51.068;13.780;2024-02-14T01:48:36;3.50;99.90
6018;DHT22;3037;51.068;13.780;2024-02-14T01:51:03;3.20;99.90
6018;DHT22;3037;51.068;13.780;2024-02-14T01:53:30;3.30;99.90
6018;DHT22;3037;51.068;13.780;2024-02-14T01:55:59;3.40;99.90
6018;DHT22;3037;51.068;13.780;2024-02-14T01:58:25;3.40;99.90
6018;DHT22;3037;51.068;13.780;2024-02-14T02:00:51;3.30;99.90
6018;DHT22;3037;51.068;13.780;2024-02-14T02:03:25;3.30;99.90
6018;DHT22;3037;51.068;13.780;2024-02-14T02:05:55;3.30;99.90
6018;DHT22;3037;51.068;13.780;2024-02-14T02:08:21;3.30;99.90
6018;DHT22;3037;51.068;13.780;2024-02-14T02:10:47;3.30;99.90
6018;DHT22;3037;51.068;13.780;2024-02-14T02:13:13;3.20;99.90
6018;DHT22;3037;51.068;13.780;2024-02-14T02:15:40;3.20;99.90
6018;DHT22;3037;51.068;13.780;2024-02-14T02:18:06;3.30;99.90
6018;DHT22;3037;51.068;13.780;2024-02-14T02:20:32;3.00;99.90
6018;DHT22;3037;51.068;13.780;2024-02-14T02:22:58;3.00;99.90
6018;DHT22;3037;51.068;13.780;2024-02-14T02:25:24;3.00;99.90
6018;DHT22;3037;51.068;13.780;2024-02-14T02:27:52;3.00;99.90
6018;DHT22;3037;51.068;13.780;2024-02-14T02:30:20;3.00;99.90
6018;DHT22;3037;51.068;13.780;2024-02-14T02:32:45;2.90;99.90
6018;DHT22;3037;51.068;13.780;2024-02-14T02:35:11;3.10;99.90
6018;DHT22;3037;51.068;13.780;2024-02-14T02:37:37;3.20;99.90
6018;DHT22;3037;51.068;13.780;2024-02-14T02:40:02;3.30;99.90
6018;DHT22;3037;51.068;13.780;2024-02-14T02:42:28;3.20;99.90
6018;DHT22;3037;51.068;13.780;2024-02-14T02:44:54;3.20;99.90
6018;DHT22;3037;51.068;13.780;2024-02-14T02:47:19;3.30;99.90
6018;DHT22;3037;51.068;13.780;2024-02-14T02:49:45;3.30;99.90
6018;DHT22;3037;51.068;13.780;2024-02-14T02:52:11;3.30;99.90
6018;DHT22;3037;51.068;13.780;2024-02-14T02:54:37;3.20;99.90
6018;DHT22;3037;51.068;13.780;2024-02-14T02:57:07;3.20;99.90
6018;DHT22;3037;51.068;13.780;2024-02-14T02:59:32;3.20;99.90
6018;DHT22;3037;51.068;13.780;2024-02-14T03:01:58;3.20;99.90
6018;DHT22;3037;51.068;13.780;2024-02-14T03:04:24;3.20;99.90
6018;DHT22;3037;51.068;13.780;2024-02-14T03:06:50;3.20;99.90
6018;DHT22;3037;51.068;13.780;2024-02-14T03:09:15;3.20;99.90
6018;DHT22;3037;51.068;13.780;2024-02-14T03:11:46;3.20;99.90
6018;DHT22;3037;51.068;13.780;2024-02-14T03:14:12;3.20;99.90
6018;DHT22;3037;51.068;13.780;2024-02-14T03:16:37;3.20;99.90
6018;DHT22;3037;51.068;13.780;2024-02-14T03:19:03;3.30;99.90
6018;DHT22;3037;51.068;13.780;2024-02-14T03:21:30;3.30;99.90
6018;DHT22;3037;51.068;13.780;2024-02-14T03:23:57;3.30;99.90
6018;DHT22;3037;51.068;13.780;2024-02-14T03:26:23;3.20;99.90
6018;DHT22;3037;51.068;13.780;2024-02-14T03:28:48;3.20;99.90
6018;DHT22;3037;51.068;13.780;2024-02-14T03:31:14;3.30;99.90
6018;DHT22;3037;51.068;13.780;2024-02-14T03:33:41;3.30;99.90
6018;DHT22;3037;51.068;13.780;2024-02-14T03:36:07;3.20;99.90
6018;DHT22;3037;51.068;13.780;2024-02-14T03:38:32;3.20;99.90
6018;DHT22;3037;51.068;13.780;2024-02-14T03:40:58;3.20;99.90
6018;DHT22;3037;51.068;13.780;2024-02-14T03:43:23;3.30;99.90
6018;DHT22;3037;51.068;13.780;2024-02-14T03:45:49;3.40;99.90
6018;DHT22;3037;51.068;13.780;2024-02-14T03:48:16;3.40;99.90
6018;DHT22;3037;51.068;13.780;2024-02-14T03:50:42;3.70;99.90
6018;DHT22;3037;51.068;13.780;2024-02-14T03:53:08;3.70;99.90
6018;DHT22;3037;51.068;13.780;2024-02-14T03:55:39;3.60;99.90
6018;DHT22;3037;51.068;13.780;2024-02-14T03:58:04;3.80;99.90
6018;DHT22;3037;51.068;13.780;2024-02-14T04:00:30;3.80;99.90
6018;DHT22;3037;51.068;13.780;2024-02-14T04:02:56;3.80;99.90
6018;DHT22;3037;51.068;13.780;2024-02-14T04:05:25;3.80;99.90
6018;DHT22;3037;51.068;13.780;2024-02-14T04:07:52;3.90;99.90
6018;DHT22;3037;51.068;13.780;2024-02-14T04:10:19;4.00;99.90
6018;DHT22;3037;51.068;13.780;2024-02-14T04:12:45;3.80;99.90
6018;DHT22;3037;51.068;13.780;2024-02-14T04:15:10;3.80;99.90
6018;DHT22;3037;51.068;13.780;2024-02-14T04:17:36;3.80;99.90
6018;DHT22;3037;51.068;13.780;2024-02-14T04:20:02;4.00;99.90
6018;DHT22;3037;51.068;13.780;2024-02-14T04:22:27;3.90;99.90
6018;DHT22;3037;51.068;13.780;2024-02-14T04:24:53;3.90;99.90
6018;DHT22;3037;51.068;13.780;2024-02-14T04:27:18;3.90;99.90
6018;DHT22;3037;51.068;13.780;2024-02-14T04:29:47;3.80;99.90
6018;DHT22;3037;51.068;13.780;2024-02-14T04:32:13;3.80;99.90
6018;DHT22;3037;51.068;13.780;2024-02-14T04:34:39;4.00;99.90
6018;DHT22;3037;51.068;13.780;2024-02-14T04:37:05;4.00;99.90
6018;DHT22;3037;51.068;13.780;2024-02-14T04:39:36;4.20;99.90
6018;DHT22;3037;51.068;13.780;2024-02-14T04:42:01;4.10;99.90
6018;DHT22;3037;51.068;13.780;2024-02-14T04:44:28;3.80;99.90
6018;DHT22;3037;51.068;13.780;2024-02-14T04:46:54;3.80;99.90
6018;DHT22;3037;51.068;13.780;2024-02-14T04:49:21;3.90;99.90
6018;DHT22;3037;51.068;13.780;2024-02-14T04:51:46;3.70;99.90
6018;DHT22;3037;51.068;13.780;2024-02-14T04:54:12;3.60;99.90
6018;DHT22;3037;51.068;13.780;2024-02-14T04:56:39;3.60;99.90
6018;DHT22;3037;51.068;13.780;2024-02-14T04:59:04;3.60;99.90
6018;DHT22;3037;51.068;13.780;2024-02-14T05:01:30;3.70;99.90
6018;DHT22;3037;51.068;13.780;2024-02-14T05:03:56;3.70;99.90
6018;DHT22;3037;51.068;13.780;2024-02-14T05:06:22;3.70;99.90
6018;DHT22;3037;51.068;13.780;2024-02-14T05:08:47;3.60;99.90
6018;DHT22;3037;51.068;13.780;2024-02-14T05:11:13;3.70;99.90
6018;DHT22;3037;51.068;13.780;2024-02-14T05:13:39;3.60;99.90
6018;DHT22;3037;51.068;13.780;2024-02-14T05:16:07;3.70;99.90
6018;DHT22;3037;51.068;13.780;2024-02-14T05:18:38;3.60;99.90
6018;DHT22;3037;51.068;13.780;2024-02-14T05:21:07;3.80;99.90
6018;DHT22;3037;51.068;13.780;2024-02-14T05:23:34;3.70;99.90
6018;DHT22;3037;51.068;13.780;2024-02-14T05:26:00;3.70;99.90
6018;DHT22;3037;51.068;13.780;2024-02-14T05:28:27;3.60;99.90
6018;DHT22;3037;51.068;13.780;2024-02-14T05:30:53;3.60;99.90
6018;DHT22;3037;51.068;13.780;2024-02-14T05:33:19;3.80;99.90
6018;DHT22;3037;51.068;13.780;2024-02-14T05:35:48;3.70;99.90
6018;DHT22;3037;51.068;13.780;2024-02-14T05:38:13;3.70;99.90
6018;DHT22;3037;51.068;13.780;2024-02-14T05:40:40;3.80;99.90
6018;DHT22;3037;51.068;13.780;2024-02-14T05:43:05;3.80;99.90
6018;DHT22;3037;51.068;13.780;2024-02-14T05:45:32;3.80;99.90
6018;DHT22;3037;51.068;13.780;2024-02-14T05:47:58;3.90;99.90
6018;DHT22;3037;51.068;13.780;2024-02-14T05:50:23;3.90;99.90
6018;DHT22;3037;51.068;13.780;2024-02-14T05:52:49;4.00;99.90
6018;DHT22;3037;51.068;13.780;2024-02-14T05:55:14;4.00;99.90
6018;DHT22;3037;51.068;13.780;2024-02-14T05:57:40;4.10;99.90
6018;DHT22;3037;51.068;13.780;2024-02-14T06:00:07;4.10;99.90
6018;DHT22;3037;51.068;13.780;2024-02-14T06:02:34;4.20;99.90
6018;DHT22;3037;51.068;13.780;2024-02-14T06:05:00;4.20;99.90
6018;DHT22;3037;51.068;13.780;2024-02-14T06:07:25;4.30;99.90
6018;DHT22;3037;51.068;13.780;2024-02-14T06:09:51;4.20;99.90
6018;DHT22;3037;51.068;13.780;2024-02-14T06:12:16;4.50;99.90
6018;DHT22;3037;51.068;13.780;2024-02-14T06:14:42;4.50;99.90
6018;DHT22;3037;51.068;13.780;2024-02-14T06:17:07;4.50;99.90
6018;DHT22;3037;51.068;13.780;2024-02-14T06:19:33;4.60;99.90
6018;DHT22;3037;51.068;13.780;2024-02-14T06:22:00;4.70;99.90
6018;DHT22;3037;51.068;13.780;2024-02-14T06:24:25;4.70;98.10
6018;DHT22;3037;51.068;13.780;2024-02-14T06:26:51;4.70;97.80
6018;DHT22;3037;51.068;13.780;2024-02-14T06:29:17;4.70;97.70
6018;DHT22;3037;51.068;13.780;2024-02-14T06:31:42;4.70;99.10
6018;DHT22;3037;51.068;13.780;2024-02-14T06:34:08;4.80;97.10
6018;DHT22;3037;51.068;13.780;2024-02-14T06:36:33;4.90;94.90
6018;DHT22;3037;51.068;13.780;2024-02-14T06:38:59;5.00;95.20
6018;DHT22;3037;51.068;13.780;2024-02-14T06:41:24;5.00;93.70
6018;DHT22;3037;51.068;13.780;2024-02-14T06:43:50;5.10;94.40
6018;DHT22;3037;51.068;13.780;2024-02-14T06:46:16;5.40;90.90
6018;DHT22;3037;51.068;13.780;2024-02-14T06:48:41;5.50;99.90
6018;DHT22;3037;51.068;13.780;2024-02-14T06:51:07;5.30;89.60
6018;DHT22;3037;51.068;13.780;2024-02-14T06:53:33;5.30;90.40
6018;DHT22;3037;51.068;13.780;2024-02-14T06:55:58;5.50;84.20
6018;DHT22;3037;51.068;13.780;2024-02-14T06:58:24;5.30;86.80
6018;DHT22;3037;51.068;13.780;2024-02-14T07:00:49;5.30;89.80
6018;DHT22;3037;51.068;13.780;2024-02-14T07:03:15;5.30;90.40
6018;DHT22;3037;51.068;13.780;2024-02-14T07:05:41;5.40;89.30
6018;DHT22;3037;51.068;13.780;2024-02-14T07:08:07;5.40;90.20
6018;DHT22;3037;51.068;13.780;2024-02-14T07:10:32;5.50;88.80
6018;DHT22;3037;51.068;13.780;2024-02-14T07:12:58;5.40;91.40
6018;DHT22;3037;51.068;13.780;2024-02-14T07:15:24;5.60;90.20
6018;DHT22;3037;51.068;13.780;2024-02-14T07:17:54;5.70;90.30
6018;DHT22;3037;51.068;13.780;2024-02-14T07:20:20;5.80;88.00
6018;DHT22;3037;51.068;13.780;2024-02-14T07:22:46;5.80;86.70
6018;DHT22;3037;51.068;13.780;2024-02-14T07:25:13;5.80;80.50
6018;DHT22;3037;51.068;13.780;2024-02-14T07:27:39;6.00;78.50
6018;DHT22;3037;51.068;13.780;2024-02-14T07:30:05;6.20;74.80
6018;DHT22;3037;51.068;13.780;2024-02-14T07:32:31;6.10;72.90
6018;DHT22;3037;51.068;13.780;2024-02-14T07:34:56;6.20;71.10
6018;DHT22;3037;51.068;13.780;2024-02-14T07:37:22;6.10;72.10
6018;DHT22;3037;51.068;13.780;2024-02-14T07:39:47;6.30;71.40
6018;DHT22;3037;51.068;13.780;2024-02-14T07:42:13;6.40;70.10
6018;DHT22;3037;51.068;13.780;2024-02-14T07:44:39;6.50;69.50
6018;DHT22;3037;51.068;13.780;2024-02-14T07:47:04;6.60;66.50
6018;DHT22;3037;51.068;13.780;2024-02-14T07:49:30;6.80;61.40
6018;DHT22;3037;51.068;13.780;2024-02-14T07:51:56;7.00;59.90
6018;DHT22;3037;51.068;13.780;2024-02-14T07:54:21;7.00;60.10
6018;DHT22;3037;51.068;13.780;2024-02-14T07:56:47;7.30;57.90
6018;DHT22;3037;51.068;13.780;2024-02-14T07:59:12;7.50;58.60
6018;DHT22;3037;51.068;13.780;2024-02-14T08:01:38;7.40;54.00
6018;DHT22;3037;51.068;13.780;2024-02-14T08:04:03;7.50;49.50
6018;DHT22;3037;51.068;13.780;2024-02-14T08:06:30;7.50;50.60
6018;DHT22;3037;51.068;13.780;2024-02-14T08:08:55;7.60;45.30
6018;DHT22;3037;51.068;13.780;2024-02-14T08:11:27;7.80;42.20
6018;DHT22;3037;51.068;13.780;2024-02-14T08:13:52;8.00;41.70
6018;DHT22;3037;51.068;13.780;2024-02-14T08:16:18;8.30;37.70
6018;DHT22;3037;51.068;13.780;2024-02-14T08:18:43;8.30;32.80
6018;DHT22;3037;51.068;13.780;2024-02-14T08:21:13;8.30;32.70
6018;DHT22;3037;51.068;13.780;2024-02-14T08:23:39;8.20;29.90
6018;DHT22;3037;51.068;13.780;2024-02-14T08:26:07;8.20;29.70
6018;DHT22;3037;51.068;13.780;2024-02-14T08:28:36;8.30;27.60
6018;DHT22;3037;51.068;13.780;2024-02-14T08:31:02;8.50;26.60
6018;DHT22;3037;51.068;13.780;2024-02-14T08:33:27;8.60;26.30
6018;DHT22;3037;51.068;13.780;2024-02-14T08:35:53;8.70;25.50
6018;DHT22;3037;51.068;13.780;2024-02-14T08:38:22;8.50;25.10
6018;DHT22;3037;51.068;13.780;2024-02-14T08:40:48;8.40;23.20
6018;DHT22;3037;51.068;13.780;2024-02-14T08:43:14;8.70;23.60
6018;DHT22;3037;51.068;13.780;2024-02-14T08:45:39;8.60;22.80
6018;DHT22;3037;51.068;13.780;2024-02-14T08:48:06;8.60;22.40
6018;DHT22;3037;51.068;13.780;2024-02-14T08:50:31;8.40;21.90
6018;DHT22;3037;51.068;13.780;2024-02-14T08:52:57;8.50;23.30
6018;DHT22;3037;51.068;13.780;2024-02-14T08:55:23;8.50;21.90
6018;DHT22;3037;51.068;13.780;2024-02-14T08:57:48;8.60;22.40
6018;DHT22;3037;51.068;13.780;2024-02-14T09:00:14;8.50;23.70
6018;DHT22;3037;51.068;13.780;2024-02-14T09:02:45;8.70;23.20
6018;DHT22;3037;51.068;13.780;2024-02-14T09:05:12;8.70;22.00
6018;DHT22;3037;51.068;13.780;2024-02-14T09:07:37;8.90;20.70
6018;DHT22;3037;51.068;13.780;2024-02-14T09:10:03;9.20;20.40
6018;DHT22;3037;51.068;13.780;2024-02-14T09:12:30;8.90;20.70
6018;DHT22;3037;51.068;13.780;2024-02-14T09:14:57;9.00;21.70
6018;DHT22;3037;51.068;13.780;2024-02-14T09:17:23;9.10;21.60
6018;DHT22;3037;51.068;13.780;2024-02-14T09:19:48;9.20;21.40
6018;DHT22;3037;51.068;13.780;2024-02-14T09:22:14;9.50;22.00
6018;DHT22;3037;51.068;13.780;2024-02-14T09:24:46;9.40;17.90
6018;DHT22;3037;51.068;13.780;2024-02-14T09:27:11;9.50;19.90
6018;DHT22;3037;51.068;13.780;2024-02-14T09:29:37;9.60;17.70
6018;DHT22;3037;51.068;13.780;2024-02-14T09:32:03;10.00;14.20
6018;DHT22;3037;51.068;13.780;2024-02-14T09:34:29;10.00;14.20
6018;DHT22;3037;51.068;13.780;2024-02-14T09:36:54;10.30;12.60
6018;DHT22;3037;51.068;13.780;2024-02-14T09:39:22;10.40;8.50
6018;DHT22;3037;51.068;13.780;2024-02-14T09:41:52;10.20;8.80
6018;DHT22;3037;51.068;13.780;2024-02-14T09:44:20;10.30;9.60
6018;DHT22;3037;51.068;13.780;2024-02-14T09:46:47;10.10;10.00
6018;DHT22;3037;51.068;13.780;2024-02-14T09:49:14;10.10;10.70
6018;DHT22;3037;51.068;13.780;2024-02-14T09:51:43;10.30;9.40
6018;DHT22;3037;51.068;13.780;2024-02-14T09:54:10;10.30;9.30
6018;DHT22;3037;51.068;13.780;2024-02-14T09:56:36;10.30;11.30
6018;DHT22;3037;51.068;13.780;2024-02-14T09:59:02;10.40;9.60
6018;DHT22;3037;51.068;13.780;2024-02-14T10:01:28;10.40;7.80
6018;DHT22;3037;51.068;13.780;2024-02-14T10:03:54;10.30;9.30
6018;DHT22;3037;51.068;13.780;2024-02-14T10:06:20;10.40;9.10
6018;DHT22;3037;51.068;13.780;2024-02-14T10:08:47;10.20;10.30
6018;DHT22;3037;51.068;13.780;2024-02-14T10:11:14;10.30;9.50
6018;DHT22;3037;51.068;13.780;2024-02-14T10:13:40;10.20;13.10
6018;DHT22;3037;51.068;13.780;2024-02-14T10:16:05;10.10;16.20
6018;DHT22;3037;51.068;13.780;2024-02-14T10:18:34;10.00;16.40
6018;DHT22;3037;51.068;13.780;2024-02-14T10:20:59;10.00;17.90
6018;DHT22;3037;51.068;13.780;2024-02-14T10:23:27;10.10;17.60
6018;DHT22;3037;51.068;13.780;2024-02-14T10:25:53;10.20;20.00
6018;DHT22;3037;51.068;13.780;2024-02-14T10:28:20;10.50;18.90
6018;DHT22;3037;51.068;13.780;2024-02-14T10:30:47;10.60;16.40
6018;DHT22;3037;51.068;13.780;2024-02-14T10:33:15;10.50;15.70
6018;DHT22;3037;51.068;13.780;2024-02-14T10:35:41;10.30;14.00
6018;DHT22;3037;51.068;13.780;2024-02-14T10:38:08;10.50;14.00
6018;DHT22;3037;51.068;13.780;2024-02-14T10:40:35;10.20;14.60
6018;DHT22;3037;51.068;13.780;2024-02-14T10:43:02;10.30;18.00
6018;DHT22;3037;51.068;13.780;2024-02-14T10:45:28;10.30;18.10
6018;DHT22;3037;51.068;13.780;2024-02-14T10:47:53;10.50;18.50
6018;DHT22;3037;51.068;13.780;2024-02-14T10:50:24;10.40;23.90
6018;DHT22;3037;51.068;13.780;2024-02-14T10:52:52;10.50;22.40
6018;DHT22;3037;51.068;13.780;2024-02-14T10:55:19;10.30;24.00
6018;DHT22;3037;51.068;13.780;2024-02-14T10:57:46;10.50;22.40
6018;DHT22;3037;51.068;13.780;2024-02-14T11:00:14;10.50;20.00
6018;DHT22;3037;51.068;13.780;2024-02-14T11:02:41;10.40;20.40
6018;DHT22;3037;51.068;13.780;2024-02-14T11:05:13;10.30;22.80
6018;DHT22;3037;51.068;13.780;2024-02-14T11:07:46;10.10;22.90
6018;DHT22;3037;51.068;13.780;2024-02-14T11:10:17;10.00;26.30
6018;DHT22;3037;51.068;13.780;2024-02-14T11:12:43;10.10;24.10
6018;DHT22;3037;51.068;13.780;2024-02-14T11:15:11;10.20;26.10
6018;DHT22;3037;51.068;13.780;2024-02-14T11:17:40;10.40;25.20
6018;DHT22;3037;51.068;13.780;2024-02-14T11:20:17;10.50;23.80
6018;DHT22;3037;51.068;13.780;2024-02-14T11:22:57;10.70;22.80
6018;DHT22;3037;51.068;13.780;2024-02-14T11:25:27;10.50;23.20
6018;DHT22;3037;51.068;13.780;2024-02-14T11:27:53;10.70;22.40
6018;DHT22;3037;51.068;13.780;2024-02-14T11:30:34;10.80;23.60
6018;DHT22;3037;51.068;13.780;2024-02-14T11:35:52;10.90;22.60
6018;DHT22;3037;51.068;13.780;2024-02-14T11:38:22;11.20;22.70
6018;DHT22;3037;51.068;13.780;2024-02-14T11:40:49;11.40;20.60
6018;DHT22;3037;51.068;13.780;2024-02-14T11:43:17;11.40;20.30
6018;DHT22;3037;51.068;13.780;2024-02-14T11:45:43;11.40;20.10
6018;DHT22;3037;51.068;13.780;2024-02-14T11:48:13;11.70;17.70
6018;DHT22;3037;51.068;13.780;2024-02-14T11:50:42;11.90;17.30
6018;DHT22;3037;51.068;13.780;2024-02-14T11:53:13;12.00;16.40
6018;DHT22;3037;51.068;13.780;2024-02-14T11:55:42;12.00;16.20
6018;DHT22;3037;51.068;13.780;2024-02-14T11:58:11;12.00;17.40
6018;DHT22;3037;51.068;13.780;2024-02-14T12:00:45;11.90;18.80
6018;DHT22;3037;51.068;13.780;2024-02-14T12:03:15;11.90;20.30
6018;DHT22;3037;51.068;13.780;2024-02-14T12:05:41;11.80;18.30
6018;DHT22;3037;51.068;13.780;2024-02-14T12:08:08;11.70;20.80
6018;DHT22;3037;51.068;13.780;2024-02-14T12:10:36;11.50;21.00
6018;DHT22;3037;51.068;13.780;2024-02-14T12:13:10;11.50;21.90
6018;DHT22;3037;51.068;13.780;2024-02-14T12:15:50;11.30;23.00
6018;DHT22;3037;51.068;13.780;2024-02-14T12:18:17;11.20;24.50
6018;DHT22;3037;51.068;13.780;2024-02-14T12:20:46;11.40;21.60
6018;DHT22;3037;51.068;13.780;2024-02-14T12:23:18;11.30;22.90
6018;DHT22;3037;51.068;13.780;2024-02-14T12:25:45;11.30;24.40
6018;DHT22;3037;51.068;13.780;2024-02-14T12:28:20;11.30;24.00
6018;DHT22;3037;51.068;13.780;2024-02-14T12:30:48;11.30;24.30
6018;DHT22;3037;51.068;13.780;2024-02-14T12:33:15;11.40;23.60
6018;DHT22;3037;51.068;13.780;2024-02-14T12:35:46;11.30;25.30
6018;DHT22;3037;51.068;13.780;2024-02-14T12:38:13;11.60;28.50
6018;DHT22;3037;51.068;13.780;2024-02-14T12:40:39;11.60;28.80
6018;DHT22;3037;51.068;13.780;2024-02-14T12:43:09;11.80;28.60
6018;DHT22;3037;51.068;13.780;2024-02-14T12:45:34;11.90;29.90
6018;DHT22;3037;51.068;13.780;2024-02-14T12:48:01;12.10;30.50
6018;DHT22;3037;51.068;13.780;2024-02-14T12:50:27;12.30;30.90
6018;DHT22;3037;51.068;13.780;2024-02-14T12:52:53;12.50;29.50
6018;DHT22;3037;51.068;13.780;2024-02-14T12:55:18;12.50;28.50
6018;DHT22;3037;51.068;13.780;2024-02-14T12:57:45;12.60;27.80
6018;DHT22;3037;51.068;13.780;2024-02-14T13:00:10;12.70;27.60
6018;DHT22;3037;51.068;13.780;2024-02-14T13:02:36;12.70;27.60
6018;DHT22;3037;51.068;13.780;2024-02-14T13:05:04;12.70;28.10
6018;DHT22;3037;51.068;13.780;2024-02-14T13:07:30;12.60;28.80
6018;DHT22;3037;51.068;13.780;2024-02-14T13:09:56;12.50;28.60
6018;DHT22;3037;51.068;13.780;2024-02-14T13:12:22;12.40;29.80
6018;DHT22;3037;51.068;13.780;2024-02-14T13:14:48;12.40;30.40
6018;DHT22;3037;51.068;13.780;2024-02-14T13:17:13;12.50;29.80
6018;DHT22;3037;51.068;13.780;2024-02-14T13:19:39;12.60;28.90
6018;DHT22;3037;51.068;13.780;2024-02-14T13:22:05;12.50;30.20
6018;DHT22;3037;51.068;13.780;2024-02-14T13:24:31;12.50;30.90
6018;DHT22;3037;51.068;13.780;2024-02-14T13:26:56;12.50;31.30
6018;DHT22;3037;51.068;13.780;2024-02-14T13:29:23;12.70;30.20
6018;DHT22;3037;51.068;13.780;2024-02-14T13:31:50;12.80;30.20
6018;DHT22;3037;51.068;13.780;2024-02-14T13:34:15;12.90;29.70
6018;DHT22;3037;51.068;13.780;2024-02-14T13:36:41;12.90;29.60
6018;DHT22;3037;51.068;13.780;2024-02-14T13:39:06;12.90;29.30
6018;DHT22;3037;51.068;13.780;2024-02-14T13:41:33;12.90;30.00
6018;DHT22;3037;51.068;13.780;2024-02-14T13:43:58;13.00;28.90
6018;DHT22;3037;51.068;13.780;2024-02-14T13:46:24;12.90;29.40
6018;DHT22;3037;51.068;13.780;2024-02-14T13:48:51;13.00;28.60
6018;DHT22;3037;51.068;13.780;2024-02-14T13:51:17;12.90;28.70
6018;DHT22;3037;51.068;13.780;2024-02-14T13:53:42;12.20;29.30
6018;DHT22;3037;51.068;13.780;2024-02-14T13:56:08;12.60;30.00
6018;DHT22;3037;51.068;13.780;2024-02-14T13:58:34;12.60;30.50
6018;DHT22;3037;51.068;13.780;2024-02-14T14:01:00;12.40;33.40
6018;DHT22;3037;51.068;13.780;2024-02-14T14:03:25;12.20;35.70
6018;DHT22;3037;51.068;13.780;2024-02-14T14:05:51;12.20;36.60
6018;DHT22;3037;51.068;13.780;2024-02-14T14:08:18;12.30;37.60
6018;DHT22;3037;51.068;13.780;2024-02-14T14:10:43;12.30;37.80
6018;DHT22;3037;51.068;13.780;2024-02-14T14:13:10;12.30;38.30
6018;DHT22;3037;51.068;13.780;2024-02-14T14:15:36;12.20;40.30
6018;DHT22;3037;51.068;13.780;2024-02-14T14:18:01;12.20;41.10
6018;DHT22;3037;51.068;13.780;2024-02-14T14:20:27;12.20;42.20
6018;DHT22;3037;51.068;13.780;2024-02-14T14:22:52;12.20;43.00
6018;DHT22;3037;51.068;13.780;2024-02-14T14:25:18;12.20;42.90
6018;DHT22;3037;51.068;13.780;2024-02-14T14:27:43;12.20;43.10
6018;DHT22;3037;51.068;13.780;2024-02-14T14:30:09;12.30;42.50
6018;DHT22;3037;51.068;13.780;2024-02-14T14:32:35;12.30;43.10
6018;DHT22;3037;51.068;13.780;2024-02-14T14:35:01;12.20;44.30
6018;DHT22;3037;51.068;13.780;2024-02-14T14:37:26;12.20;45.50
6018;DHT22;3037;51.068;13.780;2024-02-14T14:39:52;12.10;46.90
6018;DHT22;3037;51.068;13.780;2024-02-14T14:42:17;12.10;47.80
6018;DHT22;3037;51.068;13.780;2024-02-14T14:44:43;12.20;47.90
6018;DHT22;3037;51.068;13.780;2024-02-14T14:47:08;12.20;49.60
6018;DHT22;3037;51.068;13.780;2024-02-14T14:49:36;12.10;49.10
6018;DHT22;3037;51.068;13.780;2024-02-14T14:52:03;12.10;49.30
6018;DHT22;3037;51.068;13.780;2024-02-14T14:54:30;12.00;49.60
6018;DHT22;3037;51.068;13.780;2024-02-14T14:56:56;12.10;49.40
6018;DHT22;3037;51.068;13.780;2024-02-14T14:59:21;12.10;50.20
6018;DHT22;3037;51.068;13.780;2024-02-14T15:01:48;12.00;52.00
6018;DHT22;3037;51.068;13.780;2024-02-14T15:04:14;12.00;52.90
6018;DHT22;3037;51.068;13.780;2024-02-14T15:06:40;12.00;53.30
6018;DHT22;3037;51.068;13.780;2024-02-14T15:09:06;12.00;53.60
6018;DHT22;3037;51.068;13.780;2024-02-14T15:11:32;12.00;53.70
6018;DHT22;3037;51.068;13.780;2024-02-14T15:13:58;12.00;54.20
6018;DHT22;3037;51.068;13.780;2024-02-14T15:16:23;12.00;54.20
6018;DHT22;3037;51.068;13.780;2024-02-14T15:18:49;11.90;55.40
6018;DHT22;3037;51.068;13.780;2024-02-14T15:21:15;11.90;56.00
6018;DHT22;3037;51.068;13.780;2024-02-14T15:23:41;11.90;56.10
6018;DHT22;3037;51.068;13.780;2024-02-14T15:26:06;11.80;57.00
6018;DHT22;3037;51.068;13.780;2024-02-14T15:28:33;11.80;57.40
6018;DHT22;3037;51.068;13.780;2024-02-14T15:31:08;11.80;57.90
6018;DHT22;3037;51.068;13.780;2024-02-14T15:33:53;11.70;58.70
6018;DHT22;3037;51.068;13.780;2024-02-14T15:36:21;11.70;58.10
6018;DHT22;3037;51.068;13.780;2024-02-14T15:38:46;11.70;59.10
6018;DHT22;3037;51.068;13.780;2024-02-14T15:41:12;11.70;59.30
6018;DHT22;3037;51.068;13.780;2024-02-14T15:43:37;11.70;59.30
6018;DHT22;3037;51.068;13.780;2024-02-14T15:46:03;11.60;60.80
6018;DHT22;3037;51.068;13.780;2024-02-14T15:48:28;11.50;62.20
6018;DHT22;3037;51.068;13.780;2024-02-14T15:50:55;11.60;63.30
6018;DHT22;3037;51.068;13.780;2024-02-14T15:53:21;11.60;63.40